Decoded Metar for KSUN (HAILEY/FRIEDMAN in ID, USA) (IATA:SUN) | Meteo·Mobile Aviation Weather
aviador You're here:

KSUN Decoded Metar

HAILEY/FRIEDMAN in ID, USA
Report Time2018-09-20 02:52:00
UTC Time2018-09-20 03:28:38
Flight Rules vfr VFR
Wind270° at 06 kt
W.Decomp.*RWY 31: 3.4 kt HW 5 kt LCW
W.Rank270° ranks 15
Current wind is below 270° avg. (6.9)
Visibility9999 m
Phenomena:N/A
Clouds:N/A
Expected CloudBase > 8,000 ft AGL from Temp-Dew spread
CeilingNone
Temp16°C (ISA +12)
Dew Point-4°C (25% RH)
AAT11.3°C
QNH1013 hPa
Density Alt6,726 ft
Elevation5,315 ft
Report Wrong Elevation
Raw Report
KSUN 200252Z 27006KT 10SM SKC 16/M04 A2991=

Extra information for KSUN:More info

Metar Taf Metar & Taf Last 4 Metars F.Rules Stats Wind Profile Meteogram Temp Stats Airport Information Weather charts Add Link Nearby VenuesMetar ALERT Operation Metar Decoded Social comments

AIRNAV info for KSUN